createdAt,value
2023-03-23T00:00:07.523Z,20.45
2023-03-23T00:01:09.480Z,20.44
2023-03-23T00:02:07.633Z,20.45
2023-03-23T00:03:08.670Z,20.44
2023-03-23T00:04:08.722Z,20.44
2023-03-23T00:05:08.784Z,20.44
2023-03-23T00:06:08.857Z,20.44
2023-03-23T00:07:08.900Z,20.43
2023-03-23T00:08:08.932Z,20.43
2023-03-23T00:09:08.983Z,20.43
2023-03-23T00:10:08.039Z,20.42
2023-03-23T00:11:09.092Z,20.42
2023-03-23T00:12:08.148Z,20.42
2023-03-23T00:13:09.186Z,20.42
2023-03-23T00:14:09.246Z,20.41
2023-03-23T00:15:09.306Z,20.40
2023-03-23T00:16:09.372Z,20.41
2023-03-23T00:17:09.408Z,20.41
2023-03-23T00:18:09.459Z,20.39
2023-03-23T00:19:08.561Z,20.40
2023-03-23T00:20:09.573Z,20.40
2023-03-23T00:21:08.640Z,20.40
2023-03-23T00:22:09.716Z,20.39
2023-03-23T00:23:09.744Z,20.39
2023-03-23T00:24:08.844Z,20.39
2023-03-23T00:25:09.896Z,20.39
2023-03-23T00:26:09.921Z,20.38
2023-03-23T00:27:09.971Z,20.38
2023-03-23T00:28:10.017Z,20.39
2023-03-23T00:29:10.070Z,20.38
2023-03-23T00:30:09.140Z,20.38
2023-03-23T00:31:10.208Z,20.37
2023-03-23T00:32:09.248Z,20.37
2023-03-23T00:33:09.306Z,20.37
2023-03-23T00:34:10.379Z,20.36
2023-03-23T00:35:10.438Z,20.36
2023-03-23T00:36:09.493Z,20.36
2023-03-23T00:37:10.580Z,20.36
2023-03-23T00:38:09.645Z,20.35
2023-03-23T00:39:10.686Z,20.35
2023-03-23T00:40:10.738Z,20.34
2023-03-23T00:41:10.810Z,20.35
2023-03-23T00:42:09.856Z,20.33
2023-03-23T00:43:10.926Z,20.34
2023-03-23T00:44:10.984Z,20.34
2023-03-23T00:45:11.046Z,20.33
2023-03-23T00:46:10.117Z,20.33
2023-03-23T00:47:11.171Z,20.34
2023-03-23T00:48:11.228Z,20.33
2023-03-23T00:49:11.284Z,20.33
2023-03-23T00:50:10.345Z,20.33
2023-03-23T00:51:11.396Z,20.32
2023-03-23T00:52:10.461Z,20.32
2023-03-23T00:53:11.510Z,20.32
2023-03-23T00:54:10.595Z,20.32
2023-03-23T00:55:11.635Z,20.32
2023-03-23T00:56:11.693Z,20.31
2023-03-23T00:57:10.771Z,20.31
2023-03-23T00:58:11.846Z,20.31
2023-03-23T00:59:11.895Z,20.31
2023-03-23T01:00:11.955Z,20.30
2023-03-23T01:01:12.021Z,20.30
2023-03-23T01:02:11.085Z,20.30
2023-03-23T01:03:12.162Z,20.30
2023-03-23T01:04:12.217Z,20.29
2023-03-23T01:05:12.289Z,20.29
2023-03-23T01:06:11.791Z,20.29
2023-03-23T01:07:11.407Z,20.28
2023-03-23T01:08:12.486Z,20.28
2023-03-23T01:09:12.529Z,20.28
2023-03-23T01:10:12.653Z,20.28
2023-03-23T01:11:12.675Z,20.28
2023-03-23T01:12:12.738Z,20.27
2023-03-23T01:13:12.787Z,20.27
2023-03-23T01:14:12.849Z,20.28
2023-03-23T01:15:12.933Z,20.27
2023-03-23T01:16:11.957Z,20.27
2023-03-23T01:17:12.017Z,20.26
2023-03-23T01:18:13.081Z,20.26
2023-03-23T01:19:12.153Z,20.26
2023-03-23T01:20:12.202Z,20.26
2023-03-23T01:21:13.279Z,20.25
2023-03-23T01:22:13.325Z,20.25
2023-03-23T01:23:13.409Z,20.25
2023-03-23T01:24:13.449Z,20.25
2023-03-23T01:25:12.506Z,20.25
2023-03-23T01:26:13.604Z,20.24
2023-03-23T01:27:13.634Z,20.23
2023-03-23T01:28:13.695Z,20.23
2023-03-23T01:29:13.759Z,20.23
2023-03-23T01:30:13.814Z,20.23
2023-03-23T01:31:14.523Z,20.23
2023-03-23T01:32:12.929Z,20.23
2023-03-23T01:33:12.985Z,20.23
2023-03-23T01:34:13.046Z,20.23
2023-03-23T01:35:13.109Z,20.22
2023-03-23T01:36:13.190Z,20.22
2023-03-23T01:37:13.234Z,20.22
2023-03-23T01:38:14.307Z,20.22
2023-03-23T01:39:14.352Z,20.21
2023-03-23T01:40:14.403Z,20.20
2023-03-23T01:41:14.461Z,20.19
2023-03-23T01:42:14.549Z,20.20
2023-03-23T01:43:14.601Z,20.20
2023-03-23T01:44:14.676Z,20.21
2023-03-23T01:45:14.715Z,20.19
2023-03-23T01:46:14.779Z,20.20
2023-03-23T01:47:14.836Z,20.19
2023-03-23T01:48:14.911Z,20.19
2023-03-23T01:49:14.890Z,20.19
2023-03-23T01:50:14.874Z,20.19
2023-03-23T01:51:13.921Z,20.18
2023-03-23T01:52:14.861Z,20.18
2023-03-23T01:53:14.864Z,20.18
2023-03-23T01:54:14.844Z,20.17
2023-03-23T01:55:14.847Z,20.18
2023-03-23T01:56:14.855Z,20.17
2023-03-23T01:57:13.830Z,20.18
2023-03-23T01:58:14.841Z,20.17
2023-03-23T01:59:14.804Z,20.17
2023-03-23T02:00:14.805Z,20.17
2023-03-23T02:01:14.798Z,20.17
2023-03-23T02:02:15.068Z,20.16
2023-03-23T02:03:17.220Z,20.17
2023-03-23T02:04:14.811Z,20.16
2023-03-23T02:05:14.769Z,20.16
2023-03-23T02:06:14.772Z,20.16
2023-03-23T02:07:14.745Z,20.15
2023-03-23T02:08:13.748Z,20.15
2023-03-23T02:09:14.737Z,20.15
2023-03-23T02:10:14.742Z,20.14
2023-03-23T02:11:22.114Z,20.15
2023-03-23T02:12:14.762Z,20.14
2023-03-23T02:13:14.707Z,20.14
2023-03-23T02:14:15.337Z,20.13
2023-03-23T02:15:13.694Z,20.14
2023-03-23T02:16:14.764Z,20.13
2023-03-23T02:17:14.693Z,20.13
2023-03-23T02:18:14.686Z,20.13
2023-03-23T02:19:14.666Z,20.13
2023-03-23T02:20:14.654Z,20.12
2023-03-23T02:21:14.647Z,20.13
2023-03-23T02:22:14.639Z,20.13
2023-03-23T02:23:14.625Z,20.12
2023-03-23T02:24:13.616Z,20.12
2023-03-23T02:25:14.631Z,20.12
2023-03-23T02:26:14.612Z,20.11
2023-03-23T02:27:13.604Z,20.11
2023-03-23T02:28:14.603Z,20.11
2023-03-23T02:29:13.607Z,20.11
2023-03-23T02:30:13.602Z,20.11
2023-03-23T02:31:14.578Z,20.10
2023-03-23T02:32:13.555Z,20.11
2023-03-23T02:33:14.545Z,20.10
2023-03-23T02:34:14.557Z,20.10
2023-03-23T02:35:14.541Z,20.09
2023-03-23T02:36:14.535Z,20.09
2023-03-23T02:37:13.523Z,20.09
2023-03-23T02:38:14.533Z,20.09
2023-03-23T02:39:13.503Z,20.09
2023-03-23T02:40:13.509Z,20.09
2023-03-23T02:41:14.501Z,20.09
2023-03-23T02:42:14.637Z,20.08
2023-03-23T02:43:13.534Z,20.08
2023-03-23T02:44:14.559Z,20.08
2023-03-23T02:45:14.624Z,20.07
2023-03-23T02:46:14.702Z,20.08
2023-03-23T02:47:14.746Z,20.07
2023-03-23T02:48:14.792Z,20.07
2023-03-23T02:49:14.966Z,20.07
2023-03-23T02:50:14.912Z,20.06
2023-03-23T02:51:14.953Z,20.07
2023-03-23T02:52:15.023Z,20.07
2023-03-23T02:53:15.082Z,20.07
2023-03-23T02:54:15.127Z,20.06
2023-03-23T02:55:14.216Z,20.06
2023-03-23T02:56:14.232Z,20.06
2023-03-23T02:57:15.301Z,20.05
2023-03-23T02:58:14.342Z,20.04
2023-03-23T02:59:14.386Z,20.04
2023-03-23T03:00:15.460Z,20.05
2023-03-23T03:01:15.492Z,20.05
2023-03-23T03:02:14.555Z,20.04
2023-03-23T03:03:15.580Z,20.04
2023-03-23T03:04:15.612Z,20.03
2023-03-23T03:05:15.663Z,20.03
2023-03-23T03:06:15.681Z,20.03
2023-03-23T03:07:15.725Z,20.03
2023-03-23T03:08:15.786Z,20.02
2023-03-23T03:09:15.800Z,20.02
2023-03-23T03:10:17.305Z,20.02
2023-03-23T03:11:15.011Z,20.02
2023-03-23T03:12:16.057Z,20.02
2023-03-23T03:13:16.082Z,20.02
2023-03-23T03:14:15.139Z,20.02
2023-03-23T03:15:16.200Z,20.02
2023-03-23T03:16:15.235Z,20.01
2023-03-23T03:17:16.296Z,20.01
2023-03-23T03:18:16.285Z,20.01
2023-03-23T03:19:17.343Z,20.01
2023-03-23T03:20:16.314Z,20.00
2023-03-23T03:21:16.284Z,20.00
2023-03-23T03:22:16.288Z,20.00
2023-03-23T03:23:16.275Z,20.00
2023-03-23T03:24:16.275Z,19.99
2023-03-23T03:25:18.212Z,19.99
2023-03-23T03:26:16.277Z,19.99
2023-03-23T03:27:16.246Z,19.99
2023-03-23T03:28:15.238Z,19.99
2023-03-23T03:29:16.231Z,19.99
2023-03-23T03:30:16.230Z,19.99
2023-03-23T03:31:15.224Z,19.99
2023-03-23T03:32:15.216Z,19.98
2023-03-23T03:33:16.239Z,19.98
2023-03-23T03:34:16.202Z,19.97
2023-03-23T03:35:15.192Z,19.97
2023-03-23T03:36:16.232Z,19.97
2023-03-23T03:37:16.169Z,19.97
2023-03-23T03:38:16.177Z,19.97
2023-03-23T03:39:16.179Z,19.97
2023-03-23T03:40:16.166Z,19.97
2023-03-23T03:41:16.164Z,19.96
2023-03-23T03:42:15.146Z,19.96
2023-03-23T03:43:16.134Z,19.96
2023-03-23T03:44:15.129Z,19.95
2023-03-23T03:45:16.118Z,19.96
2023-03-23T03:46:16.111Z,19.95
2023-03-23T03:47:16.103Z,19.95
2023-03-23T03:48:16.112Z,19.96
2023-03-23T03:49:16.116Z,19.96
2023-03-23T03:50:15.111Z,19.96
2023-03-23T03:51:15.106Z,19.95
2023-03-23T03:52:16.065Z,19.95
2023-03-23T03:53:16.083Z,19.94
2023-03-23T03:54:16.063Z,19.94
2023-03-23T03:55:16.066Z,19.94
2023-03-23T03:56:16.079Z,19.94
2023-03-23T03:57:16.032Z,19.94
2023-03-23T03:58:16.025Z,19.94
2023-03-23T03:59:21.750Z,19.93
2023-03-23T04:00:16.019Z,19.93
2023-03-23T04:01:16.001Z,19.93
2023-03-23T04:02:16.007Z,19.93
2023-03-23T04:03:16.002Z,19.92
2023-03-23T04:04:16.002Z,19.92
2023-03-23T04:05:15.998Z,19.92
2023-03-23T04:06:14.968Z,19.92
2023-03-23T04:07:15.959Z,19.93
2023-03-23T04:08:14.957Z,19.92
2023-03-23T04:09:15.951Z,19.92
2023-03-23T04:10:15.961Z,19.91
2023-03-23T04:11:32.520Z,19.89
2023-03-23T04:12:15.916Z,19.89
2023-03-23T04:13:15.912Z,19.90
2023-03-23T04:14:14.904Z,19.89
2023-03-23T04:15:15.907Z,19.89
2023-03-23T04:16:15.907Z,19.89
2023-03-23T04:17:15.899Z,19.89
2023-03-23T04:18:14.881Z,19.89
2023-03-23T04:19:15.871Z,19.89
2023-03-23T04:20:15.881Z,19.89
2023-03-23T04:21:15.884Z,19.88
2023-03-23T04:22:15.850Z,19.88
2023-03-23T04:23:14.833Z,19.88
2023-03-23T04:24:23.119Z,19.88
2023-03-23T04:25:15.836Z,19.88
2023-03-23T04:26:15.813Z,19.87
2023-03-23T04:27:15.807Z,19.88
2023-03-23T04:28:15.794Z,19.87
2023-03-23T04:29:16.563Z,19.88
2023-03-23T04:30:15.801Z,19.87
2023-03-23T04:31:15.827Z,19.87
2023-03-23T04:32:15.832Z,19.87
2023-03-23T04:33:14.836Z,19.87
2023-03-23T04:34:15.828Z,19.87
2023-03-23T04:35:15.825Z,19.87
2023-03-23T04:36:15.856Z,19.86
2023-03-23T04:37:15.820Z,19.86
2023-03-23T04:38:15.785Z,19.86
2023-03-23T04:39:15.781Z,19.86
2023-03-23T04:40:15.762Z,19.86
2023-03-23T04:41:15.759Z,19.86
2023-03-23T04:42:15.757Z,19.88
2023-03-23T04:43:15.758Z,19.87
2023-03-23T04:44:15.739Z,19.88
2023-03-23T04:45:15.737Z,19.89
2023-03-23T04:46:15.723Z,19.89
2023-03-23T04:47:15.718Z,19.89
2023-03-23T04:48:14.707Z,19.90
2023-03-23T04:49:15.702Z,19.91
2023-03-23T04:50:15.713Z,19.91
2023-03-23T04:51:15.686Z,19.92
2023-03-23T04:52:15.678Z,19.93
2023-03-23T04:53:15.715Z,19.94
2023-03-23T04:54:15.668Z,19.94
2023-03-23T04:55:15.673Z,19.95
2023-03-23T04:56:15.659Z,19.96
2023-03-23T04:57:14.647Z,19.97
2023-03-23T04:58:15.655Z,19.97
2023-03-23T04:59:15.633Z,19.97
2023-03-23T05:00:14.647Z,19.97
2023-03-23T05:01:15.636Z,19.98
2023-03-23T05:02:15.611Z,19.98
2023-03-23T05:03:15.603Z,19.98
2023-03-23T05:04:15.596Z,19.99
2023-03-23T05:05:14.600Z,19.99
2023-03-23T05:06:15.580Z,20.00
2023-03-23T05:07:15.571Z,20.00
2023-03-23T05:08:15.564Z,20.01
2023-03-23T05:09:14.585Z,20.02
2023-03-23T05:10:15.557Z,20.02
2023-03-23T05:11:15.568Z,20.02
2023-03-23T05:12:15.547Z,20.01
2023-03-23T05:13:15.539Z,20.03
2023-03-23T05:14:15.542Z,20.03
2023-03-23T05:15:14.544Z,20.03
2023-03-23T05:16:15.513Z,20.04
2023-03-23T05:17:14.509Z,20.03
2023-03-23T05:18:15.516Z,20.04
2023-03-23T05:19:15.481Z,20.05
2023-03-23T05:20:14.489Z,20.04
2023-03-23T05:21:15.483Z,20.05
2023-03-23T05:22:15.465Z,20.04
2023-03-23T05:23:15.467Z,20.07
2023-03-23T05:24:15.469Z,20.06
2023-03-23T05:25:14.486Z,20.06
2023-03-23T05:26:15.452Z,20.07
2023-03-23T05:27:15.432Z,20.07
2023-03-23T05:28:15.433Z,20.07
2023-03-23T05:29:15.432Z,20.07
2023-03-23T05:30:15.425Z,20.08
2023-03-23T05:31:15.414Z,20.08
2023-03-23T05:32:15.404Z,20.08
2023-03-23T05:33:15.399Z,20.08
2023-03-23T05:34:15.398Z,20.08
2023-03-23T05:35:15.385Z,20.09
2023-03-23T05:36:15.417Z,20.09
2023-03-23T05:37:15.365Z,20.08
2023-03-23T05:38:15.362Z,20.09
2023-03-23T05:39:15.375Z,20.09
2023-03-23T05:40:15.383Z,20.09
2023-03-23T05:41:16.881Z,20.10
2023-03-23T05:42:14.492Z,20.09
2023-03-23T05:43:15.545Z,20.10
2023-03-23T05:44:15.617Z,20.10
2023-03-23T05:45:14.689Z,20.10
2023-03-23T05:46:15.741Z,20.10
2023-03-23T05:47:15.789Z,20.10
2023-03-23T05:48:15.853Z,20.11
2023-03-23T05:49:15.905Z,20.10
2023-03-23T05:50:15.957Z,20.10
2023-03-23T05:51:16.034Z,20.11
2023-03-23T05:52:16.103Z,20.10
2023-03-23T05:53:15.169Z,20.10
2023-03-23T05:54:16.223Z,20.10
2023-03-23T05:55:16.294Z,20.10
2023-03-23T05:56:15.340Z,20.11
2023-03-23T05:57:16.447Z,20.10
2023-03-23T05:58:16.459Z,20.11
2023-03-23T05:59:16.509Z,20.10
2023-03-23T06:00:16.579Z,20.11
2023-03-23T06:01:15.620Z,20.11
2023-03-23T06:02:16.686Z,20.12
2023-03-23T06:03:16.731Z,20.14
2023-03-23T06:04:16.799Z,20.14
2023-03-23T06:05:16.859Z,20.15
2023-03-23T06:06:16.935Z,20.16
2023-03-23T06:09:16.118Z,20.18
2023-03-23T06:10:17.168Z,20.18
2023-03-23T06:11:16.246Z,20.19
2023-03-23T06:12:17.326Z,20.19
2023-03-23T06:13:17.397Z,20.19
2023-03-23T06:14:17.447Z,20.20
2023-03-23T06:15:17.490Z,20.21
2023-03-23T06:16:17.588Z,20.22
2023-03-23T06:17:17.608Z,20.23
2023-03-23T06:18:16.678Z,20.24
2023-03-23T06:19:16.772Z,20.25
2023-03-23T06:20:17.811Z,20.26
2023-03-23T06:21:18.564Z,20.27
2023-03-23T06:22:17.934Z,20.28
2023-03-23T06:24:17.058Z,20.29
2023-03-23T06:25:18.089Z,20.32
2023-03-23T06:26:18.140Z,20.36
2023-03-23T06:27:18.168Z,20.37
2023-03-23T06:28:17.207Z,20.40
2023-03-23T06:29:18.282Z,20.42
2023-03-23T06:30:18.322Z,20.45
2023-03-23T06:31:18.363Z,20.47
2023-03-23T06:32:18.409Z,20.49
2023-03-23T06:33:19.845Z,20.51
2023-03-23T06:34:17.502Z,20.52
2023-03-23T06:35:18.501Z,20.55
2023-03-23T06:36:18.580Z,20.56
2023-03-23T06:37:18.577Z,20.58
2023-03-23T06:38:18.579Z,20.59
2023-03-23T06:40:17.540Z,20.62
2023-03-23T06:41:19.136Z,20.63
2023-03-23T06:43:17.514Z,20.65
2023-03-23T06:44:18.507Z,20.73
2023-03-23T06:45:18.518Z,20.87
2023-03-23T06:46:18.537Z,21.03
2023-03-23T06:47:17.493Z,21.21
2023-03-23T06:48:17.494Z,21.32
2023-03-23T06:49:17.478Z,20.83
2023-03-23T06:50:18.475Z,20.14
2023-03-23T06:54:17.443Z,18.94
2023-03-23T06:55:18.491Z,18.97
2023-03-23T06:57:17.467Z,19.40
2023-03-23T06:58:18.406Z,19.48
2023-03-23T06:59:18.417Z,19.41
2023-03-23T07:00:18.454Z,19.36
2023-03-23T07:01:18.496Z,19.46
2023-03-23T07:04:17.395Z,19.89
2023-03-23T07:05:17.365Z,20.14
2023-03-23T07:06:18.361Z,20.32
2023-03-23T07:07:18.368Z,20.38
2023-03-23T07:09:17.367Z,20.45
2023-03-23T07:11:17.344Z,20.57
2023-03-23T07:12:18.394Z,20.65
2023-03-23T07:13:18.436Z,20.71
2023-03-23T07:14:18.486Z,20.80
2023-03-23T07:15:17.495Z,20.87
2023-03-23T07:16:19.086Z,20.97
2023-03-23T07:17:18.664Z,21.09
2023-03-23T07:18:18.530Z,21.35
2023-03-23T07:19:18.534Z,21.57
2023-03-23T07:22:17.556Z,21.52
2023-03-23T07:23:18.575Z,21.57
2023-03-23T07:24:18.591Z,21.62
2023-03-23T07:26:17.694Z,21.72
2023-03-23T07:27:18.737Z,21.77
2023-03-23T07:28:18.816Z,21.81
2023-03-23T07:29:18.851Z,21.87
2023-03-23T07:33:18.131Z,21.94
2023-03-23T07:34:19.140Z,21.92
2023-03-23T07:35:19.178Z,21.89
2023-03-23T07:38:18.358Z,21.82
2023-03-23T07:39:19.385Z,21.81
2023-03-23T07:40:19.445Z,21.81
2023-03-23T07:42:18.566Z,21.80
2023-03-23T07:43:19.607Z,21.81
2023-03-23T07:46:18.727Z,21.82
2023-03-23T07:47:19.764Z,21.81
2023-03-23T07:49:18.765Z,21.82
2023-03-23T07:50:19.737Z,21.84
2023-03-23T07:51:19.730Z,21.80
2023-03-23T07:52:18.694Z,21.83
2023-03-23T07:53:20.154Z,21.89
2023-03-23T07:56:18.690Z,21.78
2023-03-23T07:57:19.665Z,21.74
2023-03-23T07:58:20.147Z,21.72
2023-03-23T07:59:18.671Z,21.75
2023-03-23T08:00:19.652Z,21.80
2023-03-23T08:01:19.645Z,21.84
2023-03-23T08:02:19.633Z,21.89
2023-03-23T08:03:19.655Z,21.94
2023-03-23T08:04:18.619Z,21.97
2023-03-23T08:05:19.637Z,21.98
2023-03-23T08:09:18.573Z,22.10
2023-03-23T08:10:19.597Z,22.10
2023-03-23T08:11:19.611Z,22.11
2023-03-23T08:12:19.551Z,22.12
2023-03-23T08:14:21.825Z,22.13
2023-03-23T08:15:19.542Z,22.14
2023-03-23T08:17:18.524Z,22.14
2023-03-23T08:18:19.541Z,22.17
2023-03-23T08:19:18.507Z,22.22
2023-03-23T08:20:18.535Z,22.26
2023-03-23T08:21:19.530Z,22.28
2023-03-23T08:28:18.461Z,22.47
2023-03-23T08:29:19.449Z,22.51
2023-03-23T08:30:19.459Z,22.53
2023-03-23T08:32:18.417Z,22.57
2023-03-23T08:33:19.441Z,22.59
2023-03-23T08:37:18.399Z,22.68
2023-03-23T08:39:18.364Z,22.73
2023-03-23T08:40:19.413Z,22.75
2023-03-23T08:46:18.313Z,22.92
2023-03-23T08:47:19.416Z,22.94
2023-03-23T08:48:19.651Z,22.92
2023-03-23T08:50:18.274Z,22.94
2023-03-23T08:51:19.281Z,22.95
2023-03-23T08:52:19.268Z,22.92
2023-03-23T08:58:18.247Z,22.74
2023-03-23T09:00:18.259Z,22.66
2023-03-23T09:02:18.208Z,22.59
2023-03-23T09:03:19.230Z,22.56
2023-03-23T09:04:19.245Z,22.53
2023-03-23T09:06:18.348Z,22.47
2023-03-23T09:07:19.364Z,22.47
2023-03-23T09:08:19.413Z,22.44
2023-03-23T09:09:19.470Z,22.44
2023-03-23T09:10:19.480Z,22.42
2023-03-23T09:11:19.504Z,22.39
2023-03-23T09:16:18.618Z,22.34
2023-03-23T09:17:19.645Z,22.32
2023-03-23T09:18:19.690Z,22.31
2023-03-23T09:19:19.755Z,22.30
2023-03-23T09:20:19.767Z,22.29
2023-03-23T09:21:19.821Z,22.28
2023-03-23T09:22:19.871Z,22.27
2023-03-23T09:23:19.892Z,22.27
2023-03-23T09:24:19.929Z,22.27
2023-03-23T09:25:20.029Z,22.26
2023-03-23T09:29:19.135Z,22.21
2023-03-23T09:30:20.184Z,22.20
2023-03-23T09:31:20.904Z,22.20
2023-03-23T09:33:19.349Z,22.17
2023-03-23T09:34:20.386Z,22.16
2023-03-23T09:35:20.469Z,22.16
2023-03-23T09:36:20.528Z,22.16
2023-03-23T09:37:20.572Z,22.15
2023-03-23T09:38:20.617Z,22.14
2023-03-23T09:39:20.649Z,22.14
2023-03-23T09:40:20.727Z,22.13
2023-03-23T09:44:19.896Z,22.05
2023-03-23T09:45:20.960Z,22.05
2023-03-23T09:46:21.012Z,22.02
2023-03-23T09:47:21.096Z,22.03
2023-03-23T09:48:21.130Z,21.98
2023-03-23T09:49:21.226Z,21.97
2023-03-23T09:50:21.245Z,21.93
2023-03-23T09:51:21.305Z,21.93
2023-03-23T09:52:21.343Z,21.83
2023-03-23T09:55:20.420Z,21.75
2023-03-23T09:56:21.463Z,21.58
2023-03-23T09:57:21.479Z,21.47
2023-03-23T10:02:20.644Z,21.41
2023-03-23T10:03:20.622Z,21.47
2023-03-23T10:04:20.579Z,21.51
2023-03-23T10:06:20.588Z,21.63
2023-03-23T10:07:21.614Z,21.67
2023-03-23T10:08:21.691Z,21.64
2023-03-23T10:09:21.622Z,21.69
2023-03-23T10:10:21.645Z,21.72
2023-03-23T10:11:21.687Z,21.77
2023-03-23T10:13:20.772Z,21.83
2023-03-23T10:14:21.736Z,21.87
2023-03-23T10:15:21.764Z,21.92
2023-03-23T10:22:21.042Z,22.02
2023-03-23T10:23:22.065Z,22.04
2023-03-23T10:24:22.337Z,22.08
2023-03-23T10:26:21.228Z,22.14
2023-03-23T10:27:23.302Z,22.17
2023-03-23T10:31:21.446Z,22.21
2023-03-23T10:32:22.508Z,22.25
2023-03-23T10:33:22.556Z,22.28
2023-03-23T10:34:22.745Z,22.28
2023-03-23T10:38:21.832Z,22.31
2023-03-23T10:39:22.880Z,22.31
2023-03-23T10:40:22.930Z,22.32
2023-03-23T10:41:23.540Z,22.35
2023-03-23T10:42:23.023Z,22.39
2023-03-23T10:43:23.102Z,22.44
2023-03-23T10:44:23.136Z,22.52
2023-03-23T10:45:23.177Z,22.56
2023-03-23T10:48:22.206Z,22.50
2023-03-23T10:49:23.338Z,22.50
2023-03-23T10:54:22.297Z,22.59
2023-03-23T10:55:23.344Z,22.63
2023-03-23T10:57:22.339Z,22.72
2023-03-23T10:58:23.359Z,22.74
2023-03-23T10:59:23.386Z,22.73
2023-03-23T11:00:23.676Z,22.74
2023-03-23T11:04:22.354Z,22.83
2023-03-23T11:05:24.869Z,22.84
2023-03-23T11:06:23.441Z,22.84
2023-03-23T11:11:22.482Z,22.94
2023-03-23T11:12:23.462Z,22.98
2023-03-23T11:13:23.442Z,23.02
2023-03-23T11:14:23.442Z,23.02
2023-03-23T11:17:22.429Z,23.02
2023-03-23T11:18:23.428Z,23.03
2023-03-23T11:21:22.466Z,23.04
2023-03-23T11:22:23.516Z,23.01
2023-03-23T11:24:22.550Z,23.00
2023-03-23T11:25:23.530Z,23.01
2023-03-23T11:26:23.531Z,23.03
2023-03-23T11:27:23.519Z,23.03
2023-03-23T11:28:23.591Z,23.03
2023-03-23T11:29:22.654Z,23.00
2023-03-23T11:30:23.661Z,22.98
2023-03-23T11:31:23.672Z,23.00
2023-03-23T11:32:23.712Z,23.00
2023-03-23T11:33:25.715Z,22.94
2023-03-23T11:35:22.731Z,22.91
2023-03-23T11:36:23.690Z,22.91
2023-03-23T11:40:22.647Z,22.96
2023-03-23T11:41:22.667Z,22.93
2023-03-23T11:42:23.648Z,22.95
2023-03-23T11:45:22.610Z,22.82
2023-03-23T11:46:23.612Z,22.86
2023-03-23T11:47:23.636Z,22.89
2023-03-23T11:50:22.596Z,22.89
2023-03-23T11:54:22.562Z,22.90
2023-03-23T11:55:23.587Z,22.90
2023-03-23T11:56:23.549Z,22.90
2023-03-23T11:57:23.549Z,22.90
2023-03-23T11:58:23.546Z,22.89
2023-03-23T12:01:22.531Z,22.91
2023-03-23T12:02:23.517Z,22.88
2023-03-23T12:04:22.550Z,22.88
2023-03-23T12:07:23.470Z,22.85
2023-03-23T12:08:23.470Z,22.85
2023-03-23T12:09:23.460Z,22.85
2023-03-23T12:14:25.071Z,22.82
2023-03-23T12:15:22.646Z,22.81
2023-03-23T12:16:23.691Z,22.84
2023-03-23T12:17:23.661Z,22.84
2023-03-23T12:18:23.729Z,22.85
2023-03-23T12:21:22.842Z,22.86
2023-03-23T12:22:23.854Z,22.86
2023-03-23T12:23:23.861Z,22.86
2023-03-23T12:24:23.915Z,22.85
2023-03-23T12:25:22.944Z,22.83
2023-03-23T12:26:23.949Z,22.80
2023-03-23T12:27:23.966Z,22.79
2023-03-23T12:28:24.008Z,22.79
2023-03-23T12:29:24.053Z,22.79
2023-03-23T12:30:24.075Z,22.79
2023-03-23T12:32:23.108Z,22.79
2023-03-23T12:33:23.120Z,22.79
2023-03-23T12:34:24.143Z,22.79
2023-03-23T12:35:24.454Z,22.78
2023-03-23T12:36:24.241Z,22.77
2023-03-23T12:37:24.264Z,22.76
2023-03-23T12:41:23.177Z,22.76
2023-03-23T12:42:24.210Z,22.75
2023-03-23T12:44:23.240Z,22.79
2023-03-23T12:45:24.321Z,22.79
2023-03-23T12:47:23.270Z,22.76
2023-03-23T12:48:24.246Z,22.76
2023-03-23T12:49:23.265Z,22.75
2023-03-23T12:50:24.265Z,22.74
2023-03-23T12:52:23.306Z,22.74
2023-03-23T12:53:24.299Z,22.74
2023-03-23T13:00:23.326Z,22.73
2023-03-23T13:01:24.332Z,22.73
2023-03-23T13:02:24.386Z,22.73
2023-03-23T13:03:24.375Z,22.74
2023-03-23T13:04:24.427Z,22.74
2023-03-23T13:05:24.420Z,22.74
2023-03-23T13:06:24.471Z,22.74
2023-03-23T13:08:23.465Z,22.73
2023-03-23T13:09:24.406Z,22.73
2023-03-23T13:10:24.466Z,22.73
2023-03-23T13:11:24.401Z,22.74
2023-03-23T13:12:24.413Z,22.72
2023-03-23T13:16:23.390Z,22.69
2023-03-23T13:17:24.366Z,22.69
2023-03-23T13:18:24.356Z,22.67
2023-03-23T13:19:24.349Z,22.67
2023-03-23T13:20:24.355Z,22.67
2023-03-23T13:24:23.341Z,22.67
2023-03-23T13:25:24.314Z,22.61
2023-03-23T13:27:23.298Z,22.60
2023-03-23T13:28:24.309Z,22.58
2023-03-23T13:29:24.304Z,22.57
2023-03-23T13:31:23.269Z,22.56
2023-03-23T13:32:24.274Z,22.57
2023-03-23T13:33:24.248Z,22.59
2023-03-23T13:34:24.267Z,22.60
2023-03-23T13:36:23.281Z,22.60
2023-03-23T13:37:24.245Z,22.60
2023-03-23T13:38:24.226Z,22.61
2023-03-23T13:39:23.232Z,22.62
2023-03-23T13:40:24.251Z,22.63
2023-03-23T13:41:24.209Z,22.63
2023-03-23T13:44:23.189Z,22.64
2023-03-23T13:45:24.186Z,22.63
2023-03-23T13:49:23.139Z,22.63
2023-03-23T13:50:24.177Z,22.63
2023-03-23T13:52:23.121Z,22.63
2023-03-23T13:53:23.227Z,22.62
2023-03-23T13:54:24.158Z,22.61
2023-03-23T13:58:23.090Z,22.61
2023-03-23T14:00:23.083Z,22.59
2023-03-23T14:01:24.052Z,22.60
2023-03-23T14:05:23.051Z,22.58
2023-03-23T14:06:24.034Z,22.59
2023-03-23T14:07:24.013Z,22.60
2023-03-23T14:08:24.002Z,22.59
2023-03-23T14:11:22.995Z,22.58
2023-03-23T14:12:24.004Z,22.57
2023-03-23T14:14:22.968Z,22.56
2023-03-23T14:15:23.977Z,22.56
2023-03-23T14:16:23.995Z,22.56
2023-03-23T14:17:24.006Z,22.54
2023-03-23T14:18:24.040Z,22.54
2023-03-23T14:21:23.107Z,22.54
2023-03-23T14:22:24.155Z,22.53
2023-03-23T14:23:24.152Z,22.51
2023-03-23T14:24:24.171Z,22.51
2023-03-23T14:30:23.407Z,22.48
2023-03-23T14:31:24.420Z,22.47
2023-03-23T14:32:24.479Z,22.46
2023-03-23T14:33:23.498Z,22.45
2023-03-23T14:34:24.527Z,22.45
2023-03-23T14:35:24.580Z,22.44
2023-03-23T14:36:24.589Z,22.43
2023-03-23T14:37:24.627Z,22.43
2023-03-23T14:38:24.673Z,22.43
2023-03-23T14:39:24.700Z,22.43
2023-03-23T14:40:24.763Z,22.42
2023-03-23T14:41:24.772Z,22.43
2023-03-23T14:42:24.809Z,22.40
2023-03-23T14:43:24.835Z,22.39
2023-03-23T14:44:24.912Z,22.39
2023-03-23T14:47:23.942Z,22.38
2023-03-23T14:48:24.965Z,22.37
2023-03-23T14:49:25.030Z,22.38
2023-03-23T14:50:25.077Z,22.37
2023-03-23T14:52:24.133Z,22.38
2023-03-23T14:56:24.264Z,22.37
2023-03-23T14:57:25.296Z,22.37
2023-03-23T14:58:25.322Z,22.38
2023-03-23T14:59:25.346Z,22.37
2023-03-23T15:00:25.454Z,22.37
2023-03-23T15:02:24.440Z,22.38
2023-03-23T15:06:24.585Z,22.37
2023-03-23T15:07:25.688Z,22.36
2023-03-23T15:09:24.682Z,22.36
2023-03-23T15:13:24.848Z,22.33
2023-03-23T15:14:25.908Z,22.32
2023-03-23T15:15:25.969Z,22.32
2023-03-23T15:16:25.989Z,22.33
2023-03-23T15:17:26.008Z,22.31
2023-03-23T15:18:26.052Z,22.31
2023-03-23T15:19:26.087Z,22.31
2023-03-23T15:20:26.154Z,22.31
2023-03-23T15:24:25.329Z,22.28
2023-03-23T15:25:26.329Z,22.28
2023-03-23T15:26:26.351Z,22.28
2023-03-23T15:27:25.389Z,22.27
2023-03-23T15:32:25.655Z,22.25
2023-03-23T15:33:28.849Z,22.26
2023-03-23T15:34:26.627Z,22.25
2023-03-23T15:39:25.621Z,22.22
2023-03-23T15:40:25.573Z,22.22
2023-03-23T15:41:26.570Z,22.21
2023-03-23T15:44:25.556Z,22.20
2023-03-23T15:46:25.539Z,22.19
2023-03-23T15:47:25.554Z,22.18
2023-03-23T15:48:26.553Z,22.18
2023-03-23T15:49:26.499Z,22.18
2023-03-23T15:50:26.516Z,22.19
2023-03-23T15:54:25.476Z,22.15
2023-03-23T15:55:26.455Z,22.15
2023-03-23T15:57:25.447Z,22.14
2023-03-23T15:58:25.473Z,22.13
2023-03-23T15:59:25.536Z,22.13
2023-03-23T16:00:25.606Z,22.12
2023-03-23T16:01:26.717Z,22.12
2023-03-23T16:02:26.826Z,22.11
2023-03-23T16:05:25.876Z,22.10
2023-03-23T16:06:26.951Z,22.09
2023-03-23T16:07:26.997Z,22.09
2023-03-23T16:08:27.080Z,22.08
2023-03-23T16:09:27.156Z,22.08
2023-03-23T16:10:27.164Z,22.07
2023-03-23T16:11:27.230Z,22.07
2023-03-23T16:12:27.260Z,22.07
2023-03-23T16:17:26.496Z,22.04
2023-03-23T16:18:27.538Z,22.04
2023-03-23T16:19:27.584Z,22.03
2023-03-23T16:20:27.656Z,22.02
2023-03-23T16:21:26.649Z,22.02
2023-03-23T16:22:27.699Z,22.02
2023-03-23T16:23:27.715Z,22.02
2023-03-23T16:24:27.718Z,22.02
2023-03-23T16:25:27.744Z,22.02
2023-03-23T16:26:27.760Z,22.01